메인 페이지
METAR-TAF:

METAR-TAF

공항 :

아마다바드, 인도

위도: 23-04N, 경도: 072-38E, 고도: 55m

현재 날씨관측

예보는 34분 전, 01:30시(UTC)에 발표되었습니다.
5kt
온도 30°C
습도 75%
기압 1000 hPa
시정: 3000m
고도 2000ft 상공 구름 조금
고도 8000ft 상공 구름 보통
연무

METAR: VAAH 250130Z 27005KT 3000 HZ FEW020 SCT080 30/25 Q1000 TEMPO 2000

시각: 07:34 (02:04 UTC)

예보

예보는 3 시간 4분 전, 23:00시(UTC)에 발표되었습니다.
예보 대상 시간: 25일 00시부터 26일 06시까지 (UTC)
남서4kt
시정: 4000m
고도 2000ft 상공 구름 보통
고도 8000ft 상공 구름 보통
연기
전환 중
25일 01시부터 25일 03시까지 (UTC)
서남서6kt
시정: 3000m
고도 2000ft 상공 구름 보통
고도 2500ft 상공 구름 보통
연무
전환 중
25일 04시부터 25일 06시까지 (UTC)
서남서8kt
시정: 6000m
전환 중
25일 12시부터 25일 14시까지 (UTC)
서남서8kt
시정: 4000m
고도 2000ft 상공 구름 보통
고도 8000ft 상공 구름 보통
연기
전환 중
26일 01시부터 26일 03시까지 (UTC)
남서6kt
시정: 3000m
고도 2500ft 상공 구름 보통
연무
전환 중
26일 04시부터 26일 06시까지 (UTC)
8kt
시정: 6000m

TAF: VAAH 242300Z 2500/2606 23004KT 4000 FU SCT020 SCT080 BECMG 2501/2503 25006KT 3000 HZ SCT020 SCT025 BECMG 2504/2506 24008KT 6000 BECMG 2512/2514 25008KT 4000 FU SCT020 SCT080 BECMG 2601/2603 23006KT 3000 HZ SCT025 BECMG 2604/2606 27008KT 6000

4,000개 이상의 공항 관측 자료 및 예보 (METAR 및 TAF 보고).

지도상에서 검색 가능한 기상관측소가 노란 점과 빨간 점으로 표시되어 있습니다.

기상관측소 명을 보려면 표시 위로 마우스를 이동하세요.

날씨 관측과 예보를 보려면 클릭하세요.

지도 변경 : 확대하려면 엑스 표시가 있는 녹색 버튼, 축소하려면 빼기 표시가 있는 녹색 버튼, 다음 페이지의 지도를 보려면 녹색 화살표를 클릭하세요.


METAR-TAF: